createdAt,value
2022-07-31T00:01:20.709Z,88.90
2022-07-31T00:06:24.642Z,89.20
2022-07-31T00:11:27.232Z,89.76
2022-07-31T00:16:29.818Z,89.87
2022-07-31T00:21:33.933Z,89.63
2022-07-31T00:26:36.504Z,89.34
2022-07-31T00:31:39.751Z,89.03
2022-07-31T00:36:43.784Z,89.24
2022-07-31T00:41:47.655Z,89.35
2022-07-31T00:46:51.239Z,89.78
2022-07-31T00:51:55.522Z,90.13
2022-07-31T00:56:58.125Z,91.07
2022-07-31T01:02:01.647Z,91.28
2022-07-31T01:07:06.421Z,91.03
2022-07-31T01:12:15.919Z,90.82
2022-07-31T01:17:20.109Z,91.44
2022-07-31T01:22:45.480Z,91.61
2022-07-31T01:28:03.408Z,91.71
2022-07-31T01:33:14.968Z,91.84
2022-07-31T01:38:23.201Z,92.21
2022-07-31T01:43:30.563Z,93.45
2022-07-31T01:48:36.436Z,94.28
2022-07-31T01:53:41.635Z,94.04
2022-07-31T01:58:46.618Z,94.33
2022-07-31T02:04:12.290Z,93.95
2022-07-31T02:09:16.249Z,94.00
2022-07-31T02:14:20.909Z,94.47
2022-07-31T02:19:25.877Z,94.99
2022-07-31T02:24:28.799Z,95.57
2022-07-31T02:29:33.908Z,94.86
2022-07-31T02:34:39.137Z,95.60
2022-07-31T02:39:43.469Z,96.22
2022-07-31T02:44:47.294Z,95.60
2022-07-31T02:49:51.669Z,96.24
2022-07-31T02:54:55.704Z,96.03
2022-07-31T03:00:01.864Z,95.85
2022-07-31T03:05:07.359Z,95.82
2022-07-31T03:10:11.524Z,96.18
2022-07-31T03:15:20.578Z,95.76
2022-07-31T03:20:24.730Z,96.98
2022-07-31T03:25:27.918Z,97.47
2022-07-31T03:30:30.778Z,97.48
2022-07-31T03:35:39.054Z,97.62
2022-07-31T03:40:44.927Z,97.23
2022-07-31T03:45:49.493Z,97.21
2022-07-31T03:50:54.101Z,96.70
2022-07-31T03:55:57.548Z,96.74
2022-07-31T04:01:00.528Z,96.74
2022-07-31T04:06:08.999Z,96.44
2022-07-31T04:11:11.695Z,96.12
2022-07-31T04:16:14.313Z,96.41
2022-07-31T04:21:18.386Z,96.36
2022-07-31T04:26:26.394Z,96.78
2022-07-31T04:31:38.611Z,97.20
2022-07-31T04:36:45.100Z,96.99
2022-07-31T04:41:48.189Z,97.56
2022-07-31T04:46:51.704Z,98.19
2022-07-31T04:51:56.129Z,98.20
2022-07-31T04:56:58.783Z,98.40
2022-07-31T05:02:02.044Z,98.63
2022-07-31T05:07:06.410Z,98.32
2022-07-31T05:12:09.589Z,98.57
2022-07-31T05:17:12.260Z,99.77
2022-07-31T05:22:37.810Z,99.93
2022-07-31T05:28:00.527Z,99.78
2022-07-31T05:33:05.279Z,99.32
2022-07-31T05:38:11.879Z,99.77
2022-07-31T05:43:33.464Z,99.68
2022-07-31T05:48:52.470Z,99.54
2022-07-31T05:53:57.136Z,99.97
2022-07-31T05:59:18.736Z,100.00
2022-07-31T06:04:21.430Z,99.52
2022-07-31T06:09:25.455Z,99.17
2022-07-31T06:14:29.269Z,100.00
2022-07-31T06:19:53.629Z,99.39
2022-07-31T06:24:58.524Z,99.21
2022-07-31T06:30:01.509Z,99.42
2022-07-31T06:35:05.718Z,99.16
2022-07-31T06:40:18.573Z,99.59
2022-07-31T06:45:35.700Z,100.00
2022-07-31T06:51:28.260Z,100.00
2022-07-31T06:56:28.664Z,100.00
2022-07-31T07:01:32.140Z,100.00
2022-07-31T07:06:35.019Z,100.00
2022-07-31T07:11:39.177Z,100.00
2022-07-31T07:16:41.998Z,100.00
2022-07-31T07:21:44.569Z,100.00
2022-07-31T07:26:48.618Z,100.00
2022-07-31T07:31:51.469Z,100.00
2022-07-31T07:36:55.107Z,100.00
2022-07-31T07:42:03.160Z,100.00
2022-07-31T07:47:07.856Z,100.00
2022-07-31T07:52:10.838Z,100.00
2022-07-31T07:57:16.993Z,100.00
2022-07-31T08:02:38.625Z,100.00
2022-07-31T08:07:43.864Z,100.00
2022-07-31T08:13:06.355Z,100.00
2022-07-31T08:18:29.863Z,100.00
2022-07-31T08:23:32.603Z,100.00
2022-07-31T08:28:38.626Z,100.00
2022-07-31T08:33:42.131Z,100.00
2022-07-31T08:38:45.161Z,100.00
2022-07-31T08:44:12.321Z,100.00
2022-07-31T08:49:17.607Z,100.00
2022-07-31T08:54:23.631Z,100.00
2022-07-31T08:59:27.700Z,100.00
2022-07-31T09:04:32.252Z,100.00
2022-07-31T09:09:50.899Z,100.00
2022-07-31T09:14:55.839Z,100.00
2022-07-31T09:20:00.614Z,100.00
2022-07-31T09:25:12.990Z,100.00
2022-07-31T09:30:17.289Z,100.00
2022-07-31T09:35:47.634Z,100.00
2022-07-31T09:40:56.817Z,100.00
2022-07-31T09:46:08.430Z,100.00
2022-07-31T09:51:11.138Z,100.00
2022-07-31T09:56:15.913Z,100.00
2022-07-31T10:01:20.631Z,100.00
2022-07-31T10:06:26.295Z,100.00
2022-07-31T10:11:31.139Z,100.00
2022-07-31T10:16:49.607Z,100.00
2022-07-31T10:22:13.318Z,100.00
2022-07-31T10:27:18.999Z,100.00
2022-07-31T10:32:28.052Z,100.00
2022-07-31T10:37:57.329Z,100.00
2022-07-31T10:43:25.588Z,100.00
2022-07-31T10:48:53.109Z,100.00
2022-07-31T10:54:21.952Z,100.00
2022-07-31T10:59:42.916Z,100.00
2022-07-31T11:05:27.876Z,100.00
2022-07-31T11:10:50.723Z,100.00
2022-07-31T11:16:19.922Z,100.00
2022-07-31T11:21:46.811Z,100.00
2022-07-31T11:26:50.685Z,100.00
2022-07-31T11:31:53.319Z,100.00
2022-07-31T11:36:57.588Z,100.00
2022-07-31T11:42:03.633Z,100.00
2022-07-31T11:47:27.594Z,100.00
2022-07-31T11:52:36.788Z,100.00
2022-07-31T11:57:52.292Z,100.00
2022-07-31T12:02:55.767Z,100.00
2022-07-31T12:08:00.010Z,99.57
2022-07-31T12:13:04.396Z,99.46
2022-07-31T12:18:07.744Z,99.83
2022-07-31T12:23:40.255Z,99.90
2022-07-31T12:28:35.507Z,98.51
2022-07-31T12:33:43.042Z,97.49
2022-07-31T12:38:49.059Z,97.39
2022-07-31T12:43:52.808Z,97.47
2022-07-31T12:48:56.071Z,97.14
2022-07-31T12:54:00.975Z,96.08
2022-07-31T12:59:04.366Z,96.41
2022-07-31T13:04:18.603Z,96.21
2022-07-31T13:09:24.024Z,96.23
2022-07-31T13:14:27.271Z,95.98
2022-07-31T13:19:31.508Z,95.92
2022-07-31T13:24:36.400Z,95.42
2022-07-31T13:29:40.039Z,95.93
2022-07-31T13:34:42.781Z,96.23
2022-07-31T13:39:46.867Z,95.80
2022-07-31T13:44:49.716Z,95.57
2022-07-31T13:49:53.563Z,95.06
2022-07-31T13:54:58.104Z,95.12
2022-07-31T14:00:00.733Z,96.12
2022-07-31T14:05:03.691Z,96.26
2022-07-31T14:10:11.384Z,97.49
2022-07-31T14:15:15.386Z,96.35
2022-07-31T14:20:18.473Z,95.01
2022-07-31T14:25:22.558Z,92.26
2022-07-31T14:30:25.749Z,92.20
2022-07-31T14:35:28.976Z,92.24
2022-07-31T14:40:33.113Z,91.17
2022-07-31T14:45:49.996Z,91.33
2022-07-31T14:50:54.698Z,91.98
2022-07-31T14:56:03.798Z,91.57
2022-07-31T15:01:06.968Z,92.94
2022-07-31T15:06:51.411Z,93.30
2022-07-31T15:11:57.377Z,94.31
2022-07-31T15:16:58.069Z,94.18
2022-07-31T15:22:10.210Z,94.24
2022-07-31T15:27:24.173Z,92.89
2022-07-31T15:32:27.509Z,93.70
2022-07-31T15:37:31.049Z,94.50
2022-07-31T15:42:37.923Z,95.31
2022-07-31T15:47:42.366Z,94.57
2022-07-31T15:52:44.972Z,92.91
2022-07-31T15:57:49.466Z,93.00
2022-07-31T16:02:52.959Z,92.57
2022-07-31T16:08:31.905Z,92.44
2022-07-31T16:13:19.833Z,92.65
2022-07-31T16:18:22.463Z,93.51
2022-07-31T16:23:25.654Z,94.54
2022-07-31T16:28:29.663Z,94.69
2022-07-31T16:33:32.232Z,100.00
2022-07-31T16:38:34.883Z,100.00
2022-07-31T16:43:49.955Z,100.00
2022-07-31T16:48:54.200Z,100.00
2022-07-31T16:54:13.070Z,100.00
2022-07-31T16:59:20.704Z,100.00
2022-07-31T17:04:23.291Z,100.00
2022-07-31T17:09:26.012Z,100.00
2022-07-31T17:14:30.078Z,100.00
2022-07-31T17:19:41.569Z,100.00
2022-07-31T17:24:50.396Z,100.00
2022-07-31T17:29:55.332Z,100.00
2022-07-31T17:34:57.901Z,100.00
2022-07-31T17:40:01.161Z,100.00
2022-07-31T17:45:06.126Z,100.00
2022-07-31T17:50:10.597Z,100.00
2022-07-31T17:55:13.360Z,100.00
2022-07-31T18:00:17.968Z,100.00
2022-07-31T18:05:20.555Z,100.00
2022-07-31T18:10:38.614Z,100.00
2022-07-31T18:15:48.168Z,100.00
2022-07-31T18:20:51.027Z,100.00
2022-07-31T18:25:53.727Z,100.00
2022-07-31T18:30:58.038Z,100.00
2022-07-31T18:36:00.925Z,100.00
2022-07-31T18:41:03.832Z,100.00
2022-07-31T18:46:07.832Z,100.00
2022-07-31T18:51:10.682Z,100.00
2022-07-31T18:56:13.909Z,100.00
2022-07-31T19:01:17.930Z,100.00
2022-07-31T19:06:22.550Z,100.00
2022-07-31T19:11:27.496Z,100.00
2022-07-31T19:16:31.607Z,100.00
2022-07-31T19:21:42.346Z,100.00
2022-07-31T19:26:45.360Z,100.00
2022-07-31T19:31:49.528Z,100.00
2022-07-31T19:36:52.223Z,100.00
2022-07-31T19:42:10.914Z,100.00
2022-07-31T19:47:16.125Z,100.00
2022-07-31T19:52:19.775Z,100.00
2022-07-31T19:57:23.423Z,100.00
2022-07-31T20:02:27.614Z,100.00
2022-07-31T20:07:32.942Z,100.00
2022-07-31T20:12:36.719Z,100.00
2022-07-31T20:17:40.761Z,100.00
2022-07-31T20:22:43.416Z,100.00
2022-07-31T20:27:46.274Z,100.00
2022-07-31T20:32:50.557Z,100.00
2022-07-31T20:37:55.569Z,100.00
2022-07-31T20:42:58.235Z,100.00
2022-07-31T20:48:02.394Z,100.00
2022-07-31T20:53:05.999Z,100.00
2022-07-31T20:58:08.606Z,100.00
2022-07-31T21:03:12.576Z,100.00
2022-07-31T21:08:15.516Z,100.00
2022-07-31T21:13:18.396Z,100.00
2022-07-31T21:18:22.950Z,100.00
2022-07-31T21:23:26.821Z,100.00
2022-07-31T21:28:29.755Z,100.00
2022-07-31T21:33:34.167Z,100.00
2022-07-31T21:38:37.516Z,100.00
2022-07-31T21:43:58.284Z,100.00
2022-07-31T21:49:04.885Z,100.00
2022-07-31T21:54:07.740Z,100.00
2022-07-31T21:59:10.369Z,100.00
2022-07-31T22:04:14.524Z,100.00
2022-07-31T22:09:18.865Z,100.00
2022-07-31T22:14:22.203Z,100.00
2022-07-31T22:19:26.781Z,100.00
2022-07-31T22:24:29.896Z,100.00
2022-07-31T22:29:36.310Z,100.00
2022-07-31T22:34:40.839Z,100.00
2022-07-31T22:39:43.621Z,100.00
2022-07-31T22:44:46.577Z,100.00
2022-07-31T22:49:50.881Z,100.00
2022-07-31T22:54:53.486Z,100.00
2022-07-31T22:59:56.308Z,100.00
2022-07-31T23:05:00.279Z,100.00
2022-07-31T23:10:03.201Z,100.00
2022-07-31T23:15:06.795Z,100.00
2022-07-31T23:20:11.744Z,100.00
2022-07-31T23:25:15.442Z,100.00
2022-07-31T23:30:19.637Z,100.00
2022-07-31T23:35:23.683Z,100.00
2022-07-31T23:40:26.251Z,100.00
2022-07-31T23:45:28.824Z,100.00
2022-07-31T23:50:33.461Z,100.00
2022-07-31T23:55:39.206Z,100.00
